Winding Hill, Pennsylvania
Current Conditions -  °F | °C
As of 9:56 AM on Friday 19 Dec 2014 (Local Time) from KCXY Reporting Station
Overcast Overcast  
Wind Chill: 28°   Ceiling: 3600
Heat Index: 36°   Visibility: 10mi
Dew Point: 24°   Wind: 12mph
Humidity: 62%   Direction: 290°WNW
Pressure: 30.13"   Gusts: NA
Location:  40.208°N, 77.0098°W
Report Text: KCXY 191456Z 29010KT 10SM OVC036 02/M04 A3013 RMK AO2 SLP207 T00221044 51014
Loading
Personal Weather Stations






























Interactive Weather Map New forecast layout! Learn more

10-Day Weather Forecast

Advertisements
Track Severe Weather on mobile